createdAt,value
2023-08-13T00:01:52.394Z,101097.19
2023-08-13T00:04:18.982Z,101109.66
2023-08-13T00:06:45.578Z,101093.63
2023-08-13T00:09:11.954Z,101104.88
2023-08-13T00:11:38.335Z,101092.09
2023-08-13T00:14:04.778Z,101099.31
2023-08-13T00:16:31.267Z,101094.09
2023-08-13T00:18:57.672Z,101097.97
2023-08-13T00:21:24.029Z,101088.56
2023-08-13T00:23:50.404Z,101098.28
2023-08-13T00:26:16.817Z,101081.94
2023-08-13T00:28:43.284Z,101079.47
2023-08-13T00:31:09.680Z,101084.50
2023-08-13T00:33:36.172Z,101076.44
2023-08-13T00:36:02.554Z,101077.22
2023-08-13T00:38:29.129Z,101086.13
2023-08-13T00:40:55.524Z,101079.47
2023-08-13T00:43:21.963Z,101079.84
2023-08-13T00:45:48.349Z,101076.06
2023-08-13T00:48:14.777Z,101062.22
2023-08-13T00:50:41.153Z,101066.22
2023-08-13T00:53:07.525Z,101066.41
2023-08-13T00:55:33.902Z,101068.97
2023-08-13T00:58:00.293Z,101069.34
2023-08-13T01:00:26.683Z,101075.31
2023-08-13T01:02:53.142Z,101070.38
2023-08-13T01:05:19.656Z,101063.84
2023-08-13T01:07:46.056Z,101077.00
2023-08-13T01:10:12.434Z,101061.81
2023-08-13T01:12:38.861Z,101064.03
2023-08-13T01:15:05.263Z,101053.69
2023-08-13T01:17:31.664Z,101055.28
2023-08-13T01:19:58.074Z,101060.31
2023-08-13T01:22:24.509Z,101058.34
2023-08-13T01:24:50.936Z,101065.25
2023-08-13T01:27:17.316Z,101063.91
2023-08-13T01:29:43.754Z,101059.00
2023-08-13T01:32:10.153Z,101057.66
2023-08-13T01:34:36.555Z,101062.97
2023-08-13T01:37:02.978Z,101060.31
2023-08-13T01:39:29.378Z,101048.94
2023-08-13T01:41:55.964Z,101056.91
2023-08-13T01:44:22.396Z,101064.09
2023-08-13T01:46:48.856Z,101057.09
2023-08-13T01:49:15.285Z,101062.59
2023-08-13T01:51:41.655Z,101054.06
2023-08-13T01:54:08.013Z,101053.97
2023-08-13T01:56:34.378Z,101054.81
2023-08-13T01:59:00.798Z,101056.34
2023-08-13T02:01:27.214Z,101052.53
2023-08-13T02:03:53.679Z,101055.22
2023-08-13T02:06:20.057Z,101062.13
2023-08-13T02:08:46.468Z,101064.09
2023-08-13T02:11:12.855Z,101055.97
2023-08-13T02:13:39.289Z,101060.59
2023-08-13T02:16:05.731Z,101064.69
2023-08-13T02:18:32.180Z,101059.38
2023-08-13T02:20:58.616Z,101064.59
2023-08-13T02:23:25.128Z,101067.50
2023-08-13T02:25:51.586Z,101069.00
2023-08-13T02:28:17.941Z,101069.00
2023-08-13T02:30:44.367Z,101068.09
2023-08-13T02:33:10.853Z,101058.00
2023-08-13T02:35:37.270Z,101050.25
2023-08-13T02:38:03.708Z,101044.94
2023-08-13T02:40:30.078Z,101051.75
2023-08-13T02:42:56.502Z,101055.16
2023-08-13T02:45:22.986Z,101046.56
2023-08-13T02:47:49.417Z,101044.59
2023-08-13T02:50:15.938Z,101053.94
2023-08-13T02:52:42.341Z,101043.59
2023-08-13T02:55:08.786Z,101044.16
2023-08-13T02:57:40.212Z,101029.78
2023-08-13T03:00:10.090Z,101028.25
2023-08-13T03:02:36.547Z,101035.84
2023-08-13T03:05:02.962Z,101038.84
2023-08-13T03:07:29.432Z,101035.16
2023-08-13T03:09:55.824Z,101032.41
2023-08-13T03:12:22.201Z,101024.16
2023-08-13T03:14:48.600Z,101017.44
2023-08-13T03:17:15.030Z,101023.50
2023-08-13T03:19:41.380Z,101023.13
2023-08-13T03:22:07.760Z,101023.69
2023-08-13T03:24:34.211Z,101023.69
2023-08-13T03:27:00.638Z,101022.16
2023-08-13T03:29:27.069Z,101025.38
2023-08-13T03:31:53.522Z,101033.34
2023-08-13T03:34:19.934Z,101026.81
2023-08-13T03:36:46.342Z,101033.63
2023-08-13T03:39:12.753Z,101031.81
2023-08-13T03:41:39.183Z,101032.78
2023-08-13T03:44:05.568Z,101032.13
2023-08-13T03:46:31.971Z,101038.09
2023-08-13T03:48:58.365Z,101040.84
2023-08-13T03:51:24.780Z,101029.66
2023-08-13T03:53:51.159Z,101026.91
2023-08-13T03:56:17.543Z,101026.63
2023-08-13T03:58:43.978Z,101029.75
2023-08-13T04:01:10.572Z,101025.28
2023-08-13T04:03:37.196Z,101030.13
2023-08-13T04:06:03.648Z,101017.69
2023-08-13T04:08:30.072Z,101013.53
2023-08-13T04:10:56.482Z,101036.38
2023-08-13T04:13:22.908Z,101024.25
2023-08-13T04:15:49.455Z,101034.75
2023-08-13T04:18:15.876Z,101032.88
2023-08-13T04:20:42.265Z,101039.31
2023-08-13T04:23:08.684Z,101041.69
2023-08-13T04:25:35.033Z,101041.13
2023-08-13T04:28:01.459Z,101034.47
2023-08-13T04:30:27.870Z,101040.25
2023-08-13T04:32:54.274Z,101040.13
2023-08-13T04:35:20.733Z,101044.69
2023-08-13T04:37:47.154Z,101042.63
2023-08-13T04:40:13.538Z,101046.41
2023-08-13T04:42:40.017Z,101046.41
2023-08-13T04:45:06.428Z,101044.06
2023-08-13T04:47:32.827Z,101038.81
2023-08-13T04:49:59.243Z,101037.97
2023-08-13T04:52:25.598Z,101035.88
2023-08-13T04:54:51.996Z,101040.53
2023-08-13T04:57:18.408Z,101042.78
2023-08-13T04:59:44.842Z,101037.13
2023-08-13T05:02:11.251Z,101037.28
2023-08-13T05:04:37.684Z,101039.56
2023-08-13T05:07:04.093Z,101045.19
2023-08-13T05:09:30.631Z,101039.19
2023-08-13T05:11:57.049Z,101038.13
2023-08-13T05:14:23.501Z,101040.31
2023-08-13T05:16:49.907Z,101041.25
2023-08-13T05:19:16.264Z,101039.91
2023-08-13T05:21:42.652Z,101039.09
2023-08-13T05:24:09.028Z,101037.88
2023-08-13T05:26:35.406Z,101038.63
2023-08-13T05:29:01.812Z,101045.63
2023-08-13T05:31:28.226Z,101041.53
2023-08-13T05:33:54.698Z,101045.72
2023-08-13T05:36:21.075Z,101046.47
2023-08-13T05:38:47.467Z,101038.63
2023-08-13T05:41:13.868Z,101035.47
2023-08-13T05:43:40.290Z,101043.13
2023-08-13T05:46:06.709Z,101047.84
2023-08-13T05:48:33.137Z,101048.16
2023-08-13T05:50:59.518Z,101050.31
2023-08-13T05:53:25.923Z,101043.44
2023-08-13T05:55:52.318Z,101057.75
2023-08-13T05:58:18.685Z,101053.41
2023-08-13T06:00:45.159Z,101051.44
2023-08-13T06:03:11.707Z,101053.13
2023-08-13T06:05:38.175Z,101063.44
2023-08-13T06:08:04.539Z,101055.19
2023-08-13T06:10:30.914Z,101058.16
2023-08-13T06:12:57.285Z,101061.66
2023-08-13T06:15:23.665Z,101061.94
2023-08-13T06:17:50.172Z,101060.72
2023-08-13T06:20:16.548Z,101059.56
2023-08-13T06:22:43.050Z,101062.88
2023-08-13T06:25:09.493Z,101063.34
2023-08-13T06:27:35.850Z,101060.13
2023-08-13T06:30:10.397Z,101062.47
2023-08-13T06:32:37.815Z,101057.47
2023-08-13T06:35:04.295Z,101058.03
2023-08-13T06:37:30.656Z,101062.31
2023-08-13T06:39:57.062Z,101054.53
2023-08-13T06:42:23.412Z,101061.66
2023-08-13T06:44:49.765Z,101056.94
2023-08-13T06:47:16.150Z,101061.44
2023-08-13T06:49:42.538Z,101061.34
2023-08-13T06:52:08.995Z,101063.16
2023-08-13T06:54:35.389Z,101059.28
2023-08-13T06:57:03.002Z,101067.63
2023-08-13T06:59:29.435Z,101061.94
2023-08-13T07:01:55.862Z,101067.13
2023-08-13T07:04:22.318Z,101064.41
2023-08-13T07:06:48.766Z,101060.78
2023-08-13T07:09:15.171Z,101059.59
2023-08-13T07:11:41.591Z,101072.34
2023-08-13T07:14:07.970Z,101069.97
2023-08-13T07:16:34.414Z,101064.59
2023-08-13T07:19:00.867Z,101060.63
2023-08-13T07:21:27.312Z,101067.34
2023-08-13T07:23:53.680Z,101066.06
2023-08-13T07:26:20.106Z,101068.41
2023-08-13T07:28:46.502Z,101071.75
2023-08-13T07:31:12.910Z,101065.00
2023-08-13T07:33:39.300Z,101071.13
2023-08-13T07:36:05.692Z,101064.41
2023-08-13T07:38:32.130Z,101065.72
2023-08-13T07:40:58.511Z,101066.09
2023-08-13T07:43:24.977Z,101068.66
2023-08-13T07:45:51.394Z,101067.53
2023-08-13T07:48:17.858Z,101067.53
2023-08-13T07:50:44.230Z,101060.94
2023-08-13T07:53:10.798Z,101064.06
2023-08-13T07:55:37.276Z,101065.53
2023-08-13T07:58:03.753Z,101068.03
2023-08-13T08:00:30.196Z,101065.53
2023-08-13T08:02:56.647Z,101062.97
2023-08-13T08:05:23.052Z,101064.09
2023-08-13T08:07:49.485Z,101073.44
2023-08-13T08:10:15.926Z,101059.09
2023-08-13T08:12:42.392Z,101063.69
2023-08-13T08:15:08.811Z,101067.75
2023-08-13T08:17:35.309Z,101060.44
2023-08-13T08:20:01.805Z,101058.06
2023-08-13T08:22:28.210Z,101061.03
2023-08-13T08:24:54.584Z,101060.56
2023-08-13T08:27:21.171Z,101058.97
2023-08-13T08:29:47.636Z,101064.81
2023-08-13T08:32:14.292Z,101062.16
2023-08-13T08:34:40.946Z,101062.81
2023-08-13T08:37:07.422Z,101055.88
2023-08-13T08:39:33.896Z,101051.34
2023-08-13T08:42:00.316Z,101048.25
2023-08-13T08:44:26.768Z,101048.25
2023-08-13T08:46:53.271Z,101046.69
2023-08-13T08:49:19.752Z,101040.38
2023-08-13T08:51:46.189Z,101041.72
2023-08-13T08:54:12.599Z,101044.28
2023-08-13T08:56:39.041Z,101043.25
2023-08-13T08:59:05.479Z,101041.63
2023-08-13T09:01:31.964Z,101046.31
2023-08-13T09:03:58.449Z,101040.22
2023-08-13T09:06:24.922Z,101037.22
2023-08-13T09:08:51.362Z,101048.19
2023-08-13T09:11:17.791Z,101049.25
2023-08-13T09:13:44.189Z,101051.25
2023-08-13T09:16:10.613Z,101054.63
2023-08-13T09:18:37.073Z,101056.16
2023-08-13T09:21:03.544Z,101060.63
2023-08-13T09:23:30.032Z,101051.25
2023-08-13T09:25:56.457Z,101051.19
2023-08-13T09:28:22.860Z,101044.25
2023-08-13T09:30:49.257Z,101043.22
2023-08-13T09:33:15.678Z,101043.59
2023-08-13T09:35:42.128Z,101036.59
2023-08-13T09:38:08.568Z,101037.56
2023-08-13T09:40:34.971Z,101036.19
2023-08-13T09:43:01.453Z,101040.00
2023-08-13T09:45:27.865Z,101041.78
2023-08-13T09:47:54.324Z,101030.22
2023-08-13T09:50:20.711Z,101031.47
2023-08-13T09:52:47.126Z,101028.63
2023-08-13T09:55:13.532Z,101024.47
2023-08-13T09:57:40.085Z,101018.69
2023-08-13T10:00:06.607Z,101020.97
2023-08-13T10:02:33.129Z,101023.50
2023-08-13T10:04:59.674Z,101016.88
2023-08-13T10:07:26.051Z,101019.72
2023-08-13T10:10:06.339Z,101017.81
2023-08-13T10:12:34.544Z,101024.00
2023-08-13T10:15:00.956Z,101021.59
2023-08-13T10:17:27.407Z,101025.88
2023-08-13T10:19:53.801Z,101026.06
2023-08-13T10:22:20.338Z,101029.50
2023-08-13T10:24:46.906Z,101025.22
2023-08-13T10:27:13.321Z,101024.19
2023-08-13T10:29:39.824Z,101024.97
2023-08-13T10:32:06.310Z,101024.16
2023-08-13T10:34:32.749Z,101015.56
2023-08-13T10:36:59.150Z,101016.31
2023-08-13T10:39:25.550Z,101012.63
2023-08-13T10:41:51.904Z,101014.72
2023-08-13T10:44:18.258Z,101012.50
2023-08-13T10:46:44.673Z,101016.78
2023-08-13T10:49:11.072Z,101011.47
2023-08-13T10:51:37.418Z,101008.00
2023-08-13T10:54:03.797Z,101008.41
2023-08-13T10:56:30.168Z,101006.69
2023-08-13T10:58:56.544Z,101003.47
2023-08-13T11:01:22.899Z,101002.25
2023-08-13T11:03:49.485Z,100999.97
2023-08-13T11:06:16.025Z,100996.00
2023-08-13T11:08:47.946Z,100990.44
2023-08-13T11:11:14.878Z,100996.38
2023-08-13T11:13:41.359Z,100988.06
2023-08-13T11:16:07.888Z,100992.22
2023-08-13T11:18:34.363Z,100983.13
2023-08-13T11:21:00.762Z,100982.25
2023-08-13T11:23:27.206Z,100985.31
2023-08-13T11:25:53.629Z,100991.00
2023-08-13T11:28:20.090Z,100980.78
2023-08-13T11:30:46.457Z,100992.16
2023-08-13T11:33:12.901Z,100987.16
2023-08-13T11:35:39.371Z,100984.13
2023-08-13T11:38:05.821Z,100989.47
2023-08-13T11:40:32.209Z,100992.16
2023-08-13T11:42:58.618Z,100992.22
2023-08-13T11:45:25.106Z,100989.75
2023-08-13T11:47:51.593Z,100987.38
2023-08-13T11:50:18.089Z,100990.50
2023-08-13T11:52:44.495Z,100988.84
2023-08-13T11:55:10.865Z,100987.13
2023-08-13T11:57:37.235Z,100977.53
2023-08-13T12:00:03.630Z,100996.19
2023-08-13T12:02:30.108Z,100993.00
2023-08-13T12:04:56.548Z,100994.50
2023-08-13T12:07:22.980Z,100987.19
2023-08-13T12:09:49.352Z,100989.09
2023-08-13T12:12:16.044Z,100990.31
2023-08-13T12:14:42.613Z,100987.41
2023-08-13T12:17:08.977Z,100989.97
2023-08-13T12:19:35.374Z,100980.84
2023-08-13T12:22:01.821Z,100991.75
2023-08-13T12:24:28.224Z,100984.09
2023-08-13T12:26:54.640Z,100978.41
2023-08-13T12:29:21.103Z,100989.75
2023-08-13T12:31:47.520Z,100987.69
2023-08-13T12:34:13.931Z,100971.28
2023-08-13T12:36:40.377Z,100975.91
2023-08-13T12:39:06.797Z,100975.81
2023-08-13T12:41:39.773Z,100971.34
2023-08-13T12:44:06.753Z,100971.88
2023-08-13T12:46:33.228Z,100969.75
2023-08-13T12:48:59.703Z,100977.38
2023-08-13T12:51:26.144Z,100970.63
2023-08-13T12:53:52.560Z,100967.69
2023-08-13T12:56:19.029Z,100966.72
2023-08-13T12:58:45.460Z,100967.59
2023-08-13T13:01:12.100Z,100968.53
2023-08-13T13:03:38.570Z,100974.63
2023-08-13T13:06:05.005Z,100973.25
2023-08-13T13:08:31.464Z,100967.59
2023-08-13T13:10:57.829Z,100965.28
2023-08-13T13:13:24.259Z,100956.97
2023-08-13T13:15:50.730Z,100973.44
2023-08-13T13:18:17.224Z,100957.59
2023-08-13T13:20:43.611Z,100958.28
2023-08-13T13:23:10.003Z,100951.06
2023-08-13T13:25:36.366Z,100953.16
2023-08-13T13:28:02.836Z,100949.16
2023-08-13T13:30:29.318Z,100951.88
2023-08-13T13:32:55.746Z,100949.94
2023-08-13T13:35:22.167Z,100946.53
2023-08-13T13:37:48.585Z,100952.03
2023-08-13T13:40:15.040Z,100941.41
2023-08-13T13:42:41.428Z,100950.22
2023-08-13T13:45:07.913Z,100939.25
2023-08-13T13:47:34.313Z,100946.53
2023-08-13T13:50:00.765Z,100946.91
2023-08-13T13:52:27.209Z,100947.50
2023-08-13T13:54:53.648Z,100954.47
2023-08-13T13:57:20.193Z,100950.69
2023-08-13T13:59:46.708Z,100941.22
2023-08-13T14:02:13.161Z,100939.63
2023-08-13T14:04:39.602Z,100928.91
2023-08-13T14:07:06.039Z,100925.13
2023-08-13T14:09:32.454Z,100928.31
2023-08-13T14:11:58.805Z,100923.97
2023-08-13T14:14:25.151Z,100929.19
2023-08-13T14:16:51.518Z,100930.31
2023-08-13T14:19:17.940Z,100926.41
2023-08-13T14:21:44.330Z,100929.47
2023-08-13T14:24:10.737Z,100922.19
2023-08-13T14:26:37.124Z,100926.53
2023-08-13T14:29:03.488Z,100927.19
2023-08-13T14:31:30.011Z,100921.13
2023-08-13T14:33:56.383Z,100913.53
2023-08-13T14:36:22.760Z,100925.50
2023-08-13T14:38:49.193Z,100924.81
2023-08-13T14:41:15.634Z,100924.72
2023-08-13T14:43:42.080Z,100932.88
2023-08-13T14:46:08.551Z,100924.72
2023-08-13T14:48:34.988Z,100920.38
2023-08-13T14:51:01.390Z,100912.78
2023-08-13T14:53:27.835Z,100915.63
2023-08-13T14:55:54.246Z,100917.13
2023-08-13T14:58:20.700Z,100905.94
2023-08-13T15:00:47.137Z,100910.81
2023-08-13T15:03:13.720Z,100903.41
2023-08-13T15:05:40.251Z,100906.53
2023-08-13T15:08:06.698Z,100906.06
2023-08-13T15:10:33.135Z,100910.91
2023-08-13T15:12:59.565Z,100911.00
2023-08-13T15:15:26.051Z,100909.47
2023-08-13T15:17:52.573Z,100912.59
2023-08-13T15:20:19.059Z,100909.66
2023-08-13T15:22:45.479Z,100903.31
2023-08-13T15:25:11.935Z,100907.19
2023-08-13T15:27:38.386Z,100905.78
2023-08-13T15:30:04.841Z,100900.84
2023-08-13T15:32:31.251Z,100900.44
2023-08-13T15:34:57.708Z,100899.13
2023-08-13T15:37:24.152Z,100896.38
2023-08-13T15:39:50.573Z,100889.28
2023-08-13T15:42:17.275Z,100897.06
2023-08-13T15:44:43.910Z,100892.84
2023-08-13T15:47:10.324Z,100896.19
2023-08-13T15:49:36.698Z,100894.91
2023-08-13T15:52:03.080Z,100889.84
2023-08-13T15:54:29.465Z,100887.19
2023-08-13T15:56:55.827Z,100881.50
2023-08-13T15:59:22.163Z,100878.66
2023-08-13T16:01:48.588Z,100882.63
2023-08-13T16:04:15.097Z,100878.53
2023-08-13T16:06:41.598Z,100879.88
2023-08-13T16:09:07.987Z,100877.91
2023-08-13T16:11:34.447Z,100868.63
2023-08-13T16:14:00.891Z,100875.44
2023-08-13T16:16:27.335Z,100870.88
2023-08-13T16:18:53.782Z,100871.06
2023-08-13T16:21:20.209Z,100863.19
2023-08-13T16:23:46.767Z,100852.75
2023-08-13T16:26:14.083Z,100851.94
2023-08-13T16:28:40.579Z,100850.59
2023-08-13T16:31:07.086Z,100846.44
2023-08-13T16:33:33.556Z,100846.41
2023-08-13T16:35:59.956Z,100848.22
2023-08-13T16:38:26.360Z,100852.13
2023-08-13T16:40:52.736Z,100846.50
2023-08-13T16:43:19.121Z,100839.38
2023-08-13T16:45:45.499Z,100843.66
2023-08-13T16:48:14.680Z,100842.31
2023-08-13T16:50:43.024Z,100836.34
2023-08-13T16:53:09.443Z,100832.50
2023-08-13T16:55:35.822Z,100835.59
2023-08-13T16:58:02.213Z,100834.47
2023-08-13T17:00:28.660Z,100833.03
2023-08-13T17:02:55.190Z,100836.19
2023-08-13T17:05:21.662Z,100830.69
2023-08-13T17:07:48.058Z,100828.16
2023-08-13T17:10:14.486Z,100824.31
2023-08-13T17:12:40.898Z,100830.31
2023-08-13T17:15:17.534Z,100821.75
2023-08-13T17:17:48.446Z,100819.31
2023-08-13T17:20:14.830Z,100826.53
2023-08-13T17:22:41.231Z,100824.03
2023-08-13T17:25:07.622Z,100818.28
2023-08-13T17:27:34.022Z,100823.97
2023-08-13T17:30:00.436Z,100811.06
2023-08-13T17:32:26.821Z,100812.75
2023-08-13T17:34:53.213Z,100811.31
2023-08-13T17:37:19.847Z,100814.75
2023-08-13T17:39:46.434Z,100809.53
2023-08-13T17:42:12.823Z,100810.34
2023-08-13T17:44:39.207Z,100818.03
2023-08-13T17:47:05.589Z,100813.16
2023-08-13T17:49:31.952Z,100809.53
2023-08-13T17:51:58.355Z,100820.78
2023-08-13T17:54:24.730Z,100814.25
2023-08-13T17:56:51.148Z,100821.88
2023-08-13T17:59:17.534Z,100825.88
2023-08-13T18:01:43.956Z,100824.63
2023-08-13T18:04:10.335Z,100827.00
2023-08-13T18:06:38.123Z,100823.88
2023-08-13T18:09:06.196Z,100819.31
2023-08-13T18:11:32.705Z,100832.50
2023-08-13T18:13:59.105Z,100827.66
2023-08-13T18:16:25.538Z,100821.56
2023-08-13T18:18:51.917Z,100819.56
2023-08-13T18:21:18.278Z,100822.31
2023-08-13T18:23:44.680Z,100819.81
2023-08-13T18:26:11.124Z,100816.00
2023-08-13T18:28:37.482Z,100815.16
2023-08-13T18:31:03.905Z,100813.66
2023-08-13T18:33:30.392Z,100813.50
2023-08-13T18:35:56.798Z,100817.41
2023-08-13T18:38:23.174Z,100816.75
2023-08-13T18:40:49.559Z,100817.41
2023-08-13T18:43:15.992Z,100818.09
2023-08-13T18:45:42.397Z,100827.66
2023-08-13T18:48:08.838Z,100820.25
2023-08-13T18:50:35.251Z,100815.16
2023-08-13T18:53:01.782Z,100811.72
2023-08-13T18:55:28.168Z,100826.22
2023-08-13T18:57:54.565Z,100827.66
2023-08-13T19:00:20.980Z,100827.06
2023-08-13T19:02:47.415Z,100825.66
2023-08-13T19:05:13.953Z,100828.03
2023-08-13T19:07:40.329Z,100829.19
2023-08-13T19:10:06.674Z,100830.69
2023-08-13T19:12:33.031Z,100829.56
2023-08-13T19:14:59.434Z,100829.94
2023-08-13T19:17:25.912Z,100834.25
2023-08-13T19:19:52.397Z,100833.84
2023-08-13T19:22:19.001Z,100839.22
2023-08-13T19:24:45.526Z,100837.44
2023-08-13T19:27:11.934Z,100839.63
2023-08-13T19:29:38.329Z,100836.88
2023-08-13T19:32:04.696Z,100833.91
2023-08-13T19:34:31.055Z,100840.75
2023-08-13T19:36:57.414Z,100845.41
2023-08-13T19:39:23.767Z,100836.56
2023-08-13T19:41:50.184Z,100841.00
2023-08-13T19:44:28.094Z,100845.47
2023-08-13T19:47:03.019Z,100838.75
2023-08-13T19:49:29.372Z,100834.84
2023-08-13T19:51:55.742Z,100844.50
2023-08-13T19:54:22.126Z,100847.81
2023-08-13T19:56:48.498Z,100852.50
2023-08-13T19:59:14.895Z,100844.31
2023-08-13T20:01:41.345Z,100848.28
2023-08-13T20:04:07.726Z,100852.00
2023-08-13T20:06:34.284Z,100849.81
2023-08-13T20:09:00.662Z,100846.13
2023-08-13T20:11:27.023Z,100849.66
2023-08-13T20:13:53.468Z,100861.91
2023-08-13T20:16:19.856Z,100861.38
2023-08-13T20:18:46.278Z,100871.41
2023-08-13T20:21:12.638Z,100863.38
2023-08-13T20:23:38.983Z,100858.22
2023-08-13T20:26:05.333Z,100864.00
2023-08-13T20:28:31.718Z,100865.97
2023-08-13T20:30:58.109Z,100873.50
2023-08-13T20:33:24.458Z,100872.25
2023-08-13T20:35:50.849Z,100863.53
2023-08-13T20:38:17.344Z,100864.00
2023-08-13T20:40:43.715Z,100862.28
2023-08-13T20:43:10.151Z,100864.00
2023-08-13T20:45:36.672Z,100871.97
2023-08-13T20:48:03.114Z,100860.00
2023-08-13T20:50:29.560Z,100863.72
2023-08-13T20:52:55.987Z,100865.50
2023-08-13T20:55:22.376Z,100866.28
2023-08-13T20:57:48.781Z,100864.00
2023-08-13T21:00:15.318Z,100858.28
2023-08-13T21:02:41.846Z,100861.03
2023-08-13T21:05:08.334Z,100857.72
2023-08-13T21:07:34.753Z,100865.78
2023-08-13T21:10:01.187Z,100857.94
2023-08-13T21:12:27.598Z,100865.78
2023-08-13T21:14:53.982Z,100868.25
2023-08-13T21:17:20.344Z,100871.97
2023-08-13T21:19:46.760Z,100870.66
2023-08-13T21:22:13.142Z,100875.19
2023-08-13T21:24:39.602Z,100872.72
2023-08-13T21:27:05.964Z,100880.69
2023-08-13T21:29:32.306Z,100874.03
2023-08-13T21:31:58.701Z,100871.97
2023-08-13T21:34:25.063Z,100877.19
2023-08-13T21:36:51.439Z,100876.72
2023-08-13T21:39:18.134Z,100876.50
2023-08-13T21:41:44.526Z,100871.97
2023-08-13T21:44:10.884Z,100869.97
2023-08-13T21:46:37.334Z,100871.22
2023-08-13T21:49:03.818Z,100861.72
2023-08-13T21:51:30.249Z,100866.94
2023-08-13T21:53:56.760Z,100853.19
2023-08-13T21:56:23.138Z,100863.91
2023-08-13T21:58:49.545Z,100868.94
2023-08-13T22:01:15.905Z,100874.03
2023-08-13T22:03:42.441Z,100864.09
2023-08-13T22:06:08.925Z,100868.53
2023-08-13T22:08:35.335Z,100857.94
2023-08-13T22:11:01.747Z,100860.22
2023-08-13T22:13:28.132Z,100857.81
2023-08-13T22:15:54.526Z,100852.44
2023-08-13T22:18:20.966Z,100850.19
2023-08-13T22:20:47.332Z,100847.22
2023-08-13T22:23:14.854Z,100848.94
2023-08-13T22:25:41.211Z,100853.19
2023-08-13T22:28:07.604Z,100849.56
2023-08-13T22:30:34.004Z,100846.00
2023-08-13T22:33:00.479Z,100838.69
2023-08-13T22:35:26.926Z,100837.66
2023-08-13T22:37:53.308Z,100844.38
2023-08-13T22:40:19.666Z,100840.59
2023-08-13T22:42:46.076Z,100846.25
2023-08-13T22:45:12.453Z,100852.16
2023-08-13T22:47:38.871Z,100840.19
2023-08-13T22:50:05.358Z,100837.84
2023-08-13T22:52:31.793Z,100840.41
2023-08-13T22:54:58.213Z,100839.06
2023-08-13T22:57:24.659Z,100836.69
2023-08-13T22:59:51.069Z,100828.09
2023-08-13T23:02:17.698Z,100823.28
2023-08-13T23:04:44.238Z,100815.19
2023-08-13T23:07:10.673Z,100818.44
2023-08-13T23:09:37.062Z,100819.31
2023-08-13T23:12:03.461Z,100812.97
2023-08-13T23:14:29.870Z,100817.78
2023-08-13T23:16:56.257Z,100806.81
2023-08-13T23:19:23.630Z,100794.13
2023-08-13T23:21:49.963Z,100792.78
2023-08-13T23:24:16.319Z,100793.66
2023-08-13T23:26:42.709Z,100794.47
2023-08-13T23:29:09.089Z,100790.13
2023-08-13T23:31:35.489Z,100789.94
2023-08-13T23:34:01.922Z,100781.03
2023-08-13T23:36:28.286Z,100779.50
2023-08-13T23:38:54.706Z,100780.88
2023-08-13T23:41:21.067Z,100785.13
2023-08-13T23:43:47.442Z,100773.84
2023-08-13T23:46:13.836Z,100774.50
2023-08-13T23:48:40.226Z,100767.53
2023-08-13T23:51:06.625Z,100776.94
2023-08-13T23:53:33.062Z,100774.31
2023-08-13T23:55:59.501Z,100769.91
2023-08-13T23:58:25.921Z,100765.28
